Terminal Aerodrome Forecast
Issued by NWS

Home | Current Version | Previous Version | Text Only | Print | Product List | Glossary On
Versions: 1 2 3 4 5 6 7 8 9 10 11 12 13 14 15 16 17 18
000
FTUS44 KLIX 182340
TAFHUM
TAF
KHUM 182340Z 1900/1924 25011KT P6SM VCSH SCT030 BKN070
     FM190400 32013G20KT P6SM VCSH BKN070
     FM190600 35014G22KT P6SM BKN070
     FM190800 35013G20KT P6SM SCT100
     FM192200 36009KT P6SM SKC=

USA.gov is the U.S. government's official web portal to all federal, state and local government web resources and services.